createdAt,value
2022-10-02T00:00:47.986Z,14.10
2022-10-02T00:03:42.988Z,14.08
2022-10-02T00:06:24.465Z,14.20
2022-10-02T00:09:02.602Z,14.30
2022-10-02T00:11:45.169Z,14.30
2022-10-02T00:14:21.292Z,14.14
2022-10-02T00:16:56.792Z,14.10
2022-10-02T00:19:29.509Z,14.00
2022-10-02T00:22:30.998Z,14.00
2022-10-02T00:25:09.395Z,14.00
2022-10-02T00:27:49.929Z,14.00
2022-10-02T00:30:22.027Z,14.00
2022-10-02T00:33:06.248Z,13.96
2022-10-02T00:36:07.778Z,14.00
2022-10-02T00:38:49.115Z,13.90
2022-10-02T00:42:00.033Z,13.88
2022-10-02T00:44:57.489Z,13.84
2022-10-02T00:47:39.726Z,13.86
2022-10-02T00:50:35.936Z,13.90
2022-10-02T00:53:24.971Z,14.00
2022-10-02T00:56:18.478Z,14.08
2022-10-02T00:59:08.360Z,14.10
2022-10-02T01:01:46.121Z,14.00
2022-10-02T01:04:30.021Z,14.00
2022-10-02T01:07:03.552Z,13.90
2022-10-02T01:09:37.062Z,13.90
2022-10-02T01:12:09.756Z,13.90
2022-10-02T01:14:42.511Z,13.90
2022-10-02T01:17:25.167Z,13.80
2022-10-02T01:20:05.236Z,13.84
2022-10-02T01:22:44.231Z,13.90
2022-10-02T01:25:16.959Z,13.82
2022-10-02T01:27:49.290Z,13.80
2022-10-02T01:30:22.482Z,13.80
2022-10-02T01:32:57.537Z,13.80
2022-10-02T01:35:36.965Z,13.80
2022-10-02T01:38:12.460Z,13.90
2022-10-02T01:40:45.218Z,13.90
2022-10-02T01:43:20.506Z,13.90
2022-10-02T01:46:06.112Z,13.80
2022-10-02T01:48:54.246Z,13.80
2022-10-02T01:51:49.089Z,13.78
2022-10-02T01:54:29.258Z,13.70
2022-10-02T01:57:12.701Z,13.70
2022-10-02T01:59:54.838Z,13.70
2022-10-02T02:02:33.130Z,13.70
2022-10-02T02:05:12.362Z,13.60
2022-10-02T02:07:51.061Z,13.60
2022-10-02T02:10:27.640Z,13.60
2022-10-02T02:13:04.625Z,13.50
2022-10-02T02:15:41.454Z,13.50
2022-10-02T02:18:19.706Z,13.40
2022-10-02T02:20:56.828Z,13.40
2022-10-02T02:23:34.253Z,13.46
2022-10-02T02:26:13.059Z,13.50
2022-10-02T02:28:50.036Z,13.50
2022-10-02T02:31:26.294Z,13.48
2022-10-02T02:34:03.799Z,13.42
2022-10-02T02:36:40.165Z,13.42
2022-10-02T02:39:16.066Z,13.40
2022-10-02T02:41:52.005Z,13.40
2022-10-02T02:44:29.085Z,13.42
2022-10-02T02:47:08.106Z,13.44
2022-10-02T02:49:50.370Z,13.50
2022-10-02T02:52:27.850Z,13.50
2022-10-02T02:55:09.386Z,13.60
2022-10-02T02:57:47.238Z,13.60
2022-10-02T03:00:21.167Z,13.74
2022-10-02T03:02:55.696Z,13.84
2022-10-02T03:05:31.025Z,13.78
2022-10-02T03:08:07.318Z,13.70
2022-10-02T03:10:47.353Z,13.70
2022-10-02T03:13:41.125Z,13.80
2022-10-02T03:16:26.279Z,13.84
2022-10-02T03:19:16.551Z,13.90
2022-10-02T03:22:02.808Z,13.88
2022-10-02T03:24:45.358Z,13.80
2022-10-02T03:27:25.755Z,13.78
2022-10-02T03:30:05.229Z,13.80
2022-10-02T03:32:39.957Z,13.80
2022-10-02T03:35:18.597Z,13.80
2022-10-02T03:38:05.548Z,13.90
2022-10-02T03:40:37.861Z,13.82
2022-10-02T03:43:11.650Z,13.88
2022-10-02T03:45:51.426Z,13.90
2022-10-02T03:48:26.875Z,13.90
2022-10-02T03:51:01.889Z,13.90
2022-10-02T03:53:35.486Z,13.90
2022-10-02T03:56:11.061Z,13.86
2022-10-02T03:58:48.045Z,13.70
2022-10-02T04:01:24.981Z,13.54
2022-10-02T04:04:03.277Z,13.50
2022-10-02T04:06:45.311Z,13.40
2022-10-02T04:09:23.688Z,13.40
2022-10-02T04:12:00.596Z,13.36
2022-10-02T04:14:39.639Z,13.38
2022-10-02T04:17:17.554Z,13.40
2022-10-02T04:19:54.265Z,13.42
2022-10-02T04:22:34.699Z,13.40
2022-10-02T04:25:11.544Z,13.40
2022-10-02T04:27:49.201Z,13.40
2022-10-02T04:30:22.185Z,13.40
2022-10-02T04:32:54.973Z,13.50
2022-10-02T04:35:33.068Z,13.50
2022-10-02T04:38:27.460Z,13.60
2022-10-02T04:41:27.165Z,13.60
2022-10-02T04:44:15.807Z,13.70
2022-10-02T04:47:13.772Z,13.64
2022-10-02T04:50:07.155Z,13.70
2022-10-02T04:53:12.748Z,13.70
2022-10-02T04:56:02.090Z,13.70
2022-10-02T04:58:51.295Z,13.70
2022-10-02T05:01:36.766Z,13.60
2022-10-02T05:04:29.212Z,13.60
2022-10-02T05:07:27.378Z,13.60
2022-10-02T05:10:06.209Z,13.70
2022-10-02T05:12:56.569Z,13.80
2022-10-02T05:15:54.430Z,13.80
2022-10-02T05:18:46.100Z,13.80
2022-10-02T05:21:41.286Z,13.70
2022-10-02T05:24:30.772Z,13.60
2022-10-02T05:27:38.004Z,13.60
2022-10-02T05:38:10.535Z,14.00
2022-10-02T05:45:51.307Z,14.10
2022-10-02T05:48:29.003Z,14.20
2022-10-02T05:51:10.631Z,14.30
2022-10-02T05:53:58.304Z,14.30
2022-10-02T05:56:48.955Z,14.40
2022-10-02T05:59:34.074Z,14.50
2022-10-02T06:02:16.611Z,14.50
2022-10-02T06:04:56.209Z,14.40
2022-10-02T06:07:29.350Z,14.40
2022-10-02T06:10:07.201Z,14.40
2022-10-02T06:12:46.250Z,14.30
2022-10-02T06:15:26.147Z,14.40
2022-10-02T06:18:08.770Z,14.50
2022-10-02T06:20:56.217Z,14.60
2022-10-02T06:23:38.453Z,14.60
2022-10-02T06:26:17.890Z,14.70
2022-10-02T06:28:56.657Z,14.80
2022-10-02T06:31:38.175Z,14.90
2022-10-02T06:34:13.901Z,15.00
2022-10-02T06:37:04.438Z,15.10
2022-10-02T06:40:07.898Z,15.30
2022-10-02T06:42:53.153Z,15.40
2022-10-02T06:45:36.874Z,15.48
2022-10-02T06:48:28.460Z,15.50
2022-10-02T06:51:10.304Z,15.60
2022-10-02T06:53:58.849Z,15.60
2022-10-02T06:56:45.430Z,15.56
2022-10-02T06:59:32.603Z,15.40
2022-10-02T07:02:22.757Z,15.38
2022-10-02T07:05:14.094Z,15.20
2022-10-02T07:07:58.731Z,15.10
2022-10-02T07:10:43.430Z,15.20
2022-10-02T07:13:30.293Z,15.20
2022-10-02T07:16:34.723Z,15.30
2022-10-02T07:19:33.489Z,15.40
2022-10-02T07:22:45.801Z,15.68
2022-10-02T07:25:37.923Z,16.00
2022-10-02T07:28:18.747Z,16.30
2022-10-02T07:30:59.340Z,16.48
2022-10-02T07:33:52.460Z,16.60
2022-10-02T07:36:41.221Z,16.70
2022-10-02T07:39:41.708Z,16.80
2022-10-02T07:42:58.468Z,16.80
2022-10-02T07:45:35.343Z,16.80
2022-10-02T07:48:38.157Z,16.90
2022-10-02T07:51:49.940Z,16.80
2022-10-02T07:54:46.376Z,16.50
2022-10-02T07:57:30.329Z,16.30
2022-10-02T08:00:15.011Z,16.20
2022-10-02T08:02:51.858Z,16.20
2022-10-02T08:05:26.768Z,16.28
2022-10-02T08:08:02.489Z,16.30
2022-10-02T08:10:38.310Z,16.50
2022-10-02T08:13:20.784Z,16.52
2022-10-02T08:15:56.029Z,16.56
2022-10-02T08:18:35.005Z,16.60
2022-10-02T08:21:14.441Z,16.60
2022-10-02T08:23:54.170Z,16.60
2022-10-02T08:26:35.640Z,16.50
2022-10-02T08:29:12.375Z,16.50
2022-10-02T08:31:44.406Z,16.66
2022-10-02T08:34:21.013Z,16.86
2022-10-02T08:37:19.884Z,17.00
2022-10-02T08:40:37.220Z,17.20
2022-10-02T08:43:45.462Z,17.30
2022-10-02T08:46:58.630Z,17.40
2022-10-02T08:50:08.160Z,17.60
2022-10-02T08:53:16.915Z,17.70
2022-10-02T08:56:19.199Z,17.62
2022-10-02T08:59:23.926Z,17.50
2022-10-02T09:02:34.855Z,17.50
2022-10-02T09:05:39.642Z,17.60
2022-10-02T09:08:33.714Z,17.80
2022-10-02T09:11:30.062Z,18.10
2022-10-02T09:14:34.025Z,18.30
2022-10-02T09:17:31.973Z,18.40
2022-10-02T09:20:42.967Z,18.50
2022-10-02T09:23:45.394Z,18.70
2022-10-02T09:26:34.813Z,18.80
2022-10-02T09:29:39.391Z,18.86
2022-10-02T09:32:46.023Z,19.00
2022-10-02T09:35:53.351Z,19.24
2022-10-02T09:39:05.502Z,19.20
2022-10-02T09:42:15.319Z,19.48
2022-10-02T09:45:15.408Z,19.50
2022-10-02T09:48:19.913Z,19.50
2022-10-02T09:51:15.326Z,19.40
2022-10-02T09:54:42.045Z,19.40
2022-10-02T09:58:00.111Z,19.40
2022-10-02T10:00:52.411Z,19.30
2022-10-02T10:03:51.556Z,19.34
2022-10-02T10:07:01.007Z,19.20
2022-10-02T10:10:18.825Z,19.20
2022-10-02T10:13:32.461Z,19.20
2022-10-02T10:16:32.542Z,19.38
2022-10-02T10:19:49.664Z,19.50
2022-10-02T10:22:49.794Z,19.70
2022-10-02T10:25:35.750Z,19.86
2022-10-02T10:28:32.617Z,19.74
2022-10-02T10:31:30.052Z,19.72
2022-10-02T10:34:47.266Z,19.50
2022-10-02T10:37:51.445Z,19.30
2022-10-02T10:40:44.271Z,19.30
2022-10-02T10:43:42.130Z,19.50
2022-10-02T10:46:33.987Z,19.60
2022-10-02T10:49:32.385Z,19.80
2022-10-02T10:52:16.265Z,20.00
2022-10-02T10:55:06.622Z,20.30
2022-10-02T10:57:52.900Z,20.30
2022-10-02T11:00:26.529Z,20.40
2022-10-02T11:03:34.062Z,20.50
2022-10-02T11:07:03.297Z,20.68
2022-10-02T11:10:12.079Z,20.70
2022-10-02T11:13:09.015Z,20.90
2022-10-02T11:16:30.585Z,21.10
2022-10-02T11:19:41.487Z,21.00
2022-10-02T11:22:43.409Z,20.80
2022-10-02T11:25:42.271Z,20.80
2022-10-02T11:29:10.543Z,20.70
2022-10-02T11:32:10.117Z,20.60
2022-10-02T11:35:19.699Z,20.44
2022-10-02T11:38:06.566Z,20.30
2022-10-02T11:41:02.335Z,20.20
2022-10-02T11:44:09.727Z,20.20
2022-10-02T11:47:31.026Z,20.32
2022-10-02T11:50:39.288Z,20.40
2022-10-02T11:53:51.138Z,20.20
2022-10-02T11:56:40.536Z,20.00
2022-10-02T11:59:30.695Z,19.94
2022-10-02T12:02:11.536Z,20.90
2022-10-02T12:05:06.101Z,21.32
2022-10-02T12:07:49.505Z,22.98
2022-10-02T12:10:35.720Z,24.00
2022-10-02T12:13:47.533Z,25.82
2022-10-02T12:16:30.133Z,26.00
2022-10-02T12:19:19.110Z,25.04
2022-10-02T12:22:18.970Z,24.16
2022-10-02T12:25:14.924Z,23.28
2022-10-02T12:28:05.509Z,22.54
2022-10-02T12:30:46.097Z,22.14
2022-10-02T12:33:28.392Z,21.80
2022-10-02T12:36:24.403Z,21.34
2022-10-02T12:39:13.120Z,20.86
2022-10-02T12:42:01.910Z,20.70
2022-10-02T12:44:58.423Z,20.42
2022-10-02T12:47:58.156Z,20.30
2022-10-02T12:51:04.703Z,20.20
2022-10-02T12:54:11.514Z,20.00
2022-10-02T12:57:46.984Z,19.90
2022-10-02T13:00:28.345Z,20.10
2022-10-02T13:03:47.106Z,20.00
2022-10-02T13:06:51.442Z,23.60
2022-10-02T13:09:47.732Z,23.64
2022-10-02T13:12:51.038Z,22.84
2022-10-02T13:15:43.193Z,22.62
2022-10-02T13:18:34.996Z,26.90
2022-10-02T13:21:15.990Z,30.04
2022-10-02T13:24:01.094Z,29.86
2022-10-02T13:26:42.601Z,29.12
2022-10-02T13:29:26.802Z,28.68
2022-10-02T13:32:09.308Z,28.46
2022-10-02T13:34:56.834Z,30.24
2022-10-02T13:37:39.296Z,31.66
2022-10-02T13:40:24.801Z,32.90
2022-10-02T13:43:20.441Z,34.44
2022-10-02T13:46:03.519Z,35.04
2022-10-02T13:48:55.364Z,35.96
2022-10-02T13:51:33.363Z,36.94
2022-10-02T13:54:24.802Z,37.92
2022-10-02T13:57:04.899Z,38.48
2022-10-02T13:59:57.280Z,38.70
2022-10-02T14:03:00.251Z,38.08
2022-10-02T14:05:45.008Z,38.30
2022-10-02T14:08:34.549Z,38.60
2022-10-02T14:11:17.297Z,38.80
2022-10-02T14:14:07.017Z,38.92
2022-10-02T14:16:53.840Z,39.10
2022-10-02T14:19:40.077Z,39.20
2022-10-02T14:22:34.319Z,39.20
2022-10-02T14:25:28.500Z,38.30
2022-10-02T14:32:33.200Z,33.58
2022-10-02T14:35:20.710Z,32.64
2022-10-02T14:38:27.336Z,31.22
2022-10-02T14:44:21.849Z,27.28
2022-10-02T14:47:15.542Z,25.54
2022-10-02T14:50:13.745Z,24.22
2022-10-02T14:53:30.343Z,23.12
2022-10-02T14:56:21.677Z,22.16
2022-10-02T14:59:10.140Z,21.42
2022-10-02T15:01:47.231Z,20.72
2022-10-02T15:04:32.808Z,20.20
2022-10-02T15:07:08.797Z,19.70
2022-10-02T15:09:54.965Z,19.30
2022-10-02T15:12:45.715Z,18.86
2022-10-02T15:15:23.801Z,18.50
2022-10-02T15:18:20.315Z,18.20
2022-10-02T15:21:00.684Z,17.74
2022-10-02T15:23:47.913Z,17.16
2022-10-02T15:26:33.309Z,16.58
2022-10-02T15:29:16.315Z,16.20
2022-10-02T15:32:19.346Z,16.56
2022-10-02T15:34:59.255Z,17.20
2022-10-02T15:37:43.107Z,17.54
2022-10-02T15:40:25.290Z,17.32
2022-10-02T15:42:58.986Z,16.90
2022-10-02T15:45:51.186Z,16.90
2022-10-02T15:48:52.722Z,16.50
2022-10-02T15:51:41.725Z,16.20
2022-10-02T15:54:24.949Z,15.90
2022-10-02T15:57:22.333Z,15.60
2022-10-02T16:00:14.980Z,15.40
2022-10-02T16:03:12.582Z,15.16
2022-10-02T16:05:53.395Z,15.00
2022-10-02T16:08:47.253Z,14.90
2022-10-02T16:11:44.718Z,14.80
2022-10-02T16:14:23.699Z,14.70
2022-10-02T16:17:36.085Z,14.60
2022-10-02T16:20:31.694Z,14.50
2022-10-02T16:23:21.874Z,14.40
2022-10-02T16:26:05.502Z,14.30
2022-10-02T16:28:52.323Z,14.20
2022-10-02T16:31:41.166Z,14.20
2022-10-02T16:34:39.964Z,14.10
2022-10-02T16:37:24.253Z,14.10
2022-10-02T16:40:20.665Z,14.00
2022-10-02T16:43:12.932Z,14.00
2022-10-02T16:45:59.592Z,13.98
2022-10-02T16:48:43.178Z,13.90
2022-10-02T16:51:31.139Z,13.96
2022-10-02T16:54:16.641Z,14.00
2022-10-02T16:56:54.969Z,14.10
2022-10-02T16:59:31.441Z,14.02
2022-10-02T17:02:18.300Z,13.90
2022-10-02T17:05:00.281Z,13.76
2022-10-02T17:07:42.648Z,13.70
2022-10-02T17:10:26.250Z,13.60
2022-10-02T17:13:07.157Z,13.50
2022-10-02T17:15:49.649Z,13.50
2022-10-02T17:18:33.498Z,13.40
2022-10-02T17:21:16.914Z,13.30
2022-10-02T17:24:15.634Z,13.20
2022-10-02T17:26:52.958Z,13.20
2022-10-02T17:29:30.304Z,13.20
2022-10-02T17:32:02.592Z,13.10
2022-10-02T17:34:45.869Z,13.10
2022-10-02T17:37:44.477Z,13.00
2022-10-02T17:40:22.104Z,13.00
2022-10-02T17:43:01.274Z,13.00
2022-10-02T17:45:43.001Z,13.00
2022-10-02T17:48:34.187Z,12.94
2022-10-02T17:51:51.978Z,12.90
2022-10-02T17:54:58.805Z,12.90
2022-10-02T17:57:46.637Z,12.90
2022-10-02T18:00:24.090Z,12.94
2022-10-02T18:03:31.310Z,13.00
2022-10-02T18:06:21.140Z,13.00
2022-10-02T18:09:18.125Z,13.06
2022-10-02T18:12:27.640Z,13.10
2022-10-02T18:15:21.118Z,13.20
2022-10-02T18:18:08.466Z,13.20
2022-10-02T18:20:55.574Z,13.20
2022-10-02T18:23:48.980Z,13.20
2022-10-02T18:26:36.486Z,13.20
2022-10-02T18:29:42.386Z,13.20
2022-10-02T18:32:44.943Z,13.18
2022-10-02T18:35:31.220Z,13.10
2022-10-02T18:38:16.789Z,13.10
2022-10-02T18:41:21.397Z,13.00
2022-10-02T18:44:14.579Z,13.00
2022-10-02T18:47:02.774Z,12.92
2022-10-02T18:49:51.341Z,12.90
2022-10-02T18:52:52.355Z,12.80
2022-10-02T18:55:47.507Z,12.70
2022-10-02T18:58:31.773Z,12.66
2022-10-02T19:01:25.168Z,12.60
2022-10-02T19:04:17.903Z,12.60
2022-10-02T19:06:56.059Z,12.60
2022-10-02T19:09:32.743Z,12.70
2022-10-02T19:12:17.238Z,12.70
2022-10-02T19:30:25.950Z,13.22
2022-10-02T19:33:12.156Z,13.30
2022-10-02T19:35:47.972Z,13.28
2022-10-02T19:38:44.023Z,13.20
2022-10-02T19:41:22.839Z,13.20
2022-10-02T19:44:00.214Z,13.24
2022-10-02T19:46:44.346Z,13.20
2022-10-02T19:49:22.124Z,13.10
2022-10-02T19:51:57.087Z,13.06
2022-10-02T19:54:37.967Z,13.00
2022-10-02T19:57:27.099Z,12.82
2022-10-02T20:00:01.301Z,12.70
2022-10-02T20:02:39.750Z,12.70
2022-10-02T20:05:20.221Z,12.70
2022-10-02T20:07:56.528Z,12.68
2022-10-02T20:10:39.214Z,12.60
2022-10-02T20:13:18.583Z,12.52
2022-10-02T20:16:13.632Z,12.50
2022-10-02T20:18:46.133Z,12.40
2022-10-02T20:21:25.341Z,12.30
2022-10-02T20:23:59.245Z,12.20
2022-10-02T20:26:34.063Z,12.10
2022-10-02T20:29:12.659Z,12.20
2022-10-02T20:31:50.230Z,12.10
2022-10-02T20:34:30.153Z,12.04
2022-10-02T20:37:06.669Z,12.00
2022-10-02T20:39:43.036Z,11.90
2022-10-02T20:42:22.956Z,11.90
2022-10-02T20:44:54.909Z,11.90
2022-10-02T20:47:43.511Z,11.84
2022-10-02T20:50:40.540Z,11.78
2022-10-02T20:53:37.227Z,11.70
2022-10-02T20:56:23.728Z,11.70
2022-10-02T20:59:13.347Z,11.70
2022-10-02T21:01:59.788Z,11.70
2022-10-02T21:04:56.684Z,11.70
2022-10-02T21:08:02.175Z,11.80
2022-10-02T21:13:59.764Z,11.98
2022-10-02T21:17:05.863Z,12.00
2022-10-02T21:20:01.194Z,12.00
2022-10-02T21:23:01.496Z,11.90
2022-10-02T21:26:10.281Z,11.80
2022-10-02T21:29:00.956Z,11.70
2022-10-02T21:31:58.606Z,11.70
2022-10-02T21:34:45.438Z,11.60
2022-10-02T21:37:27.643Z,11.70
2022-10-02T21:40:26.533Z,11.70
2022-10-02T21:43:38.572Z,11.70
2022-10-02T21:46:42.829Z,11.70
2022-10-02T21:49:45.636Z,11.78
2022-10-02T21:53:08.023Z,11.80
2022-10-02T21:56:10.295Z,11.70
2022-10-02T21:59:24.938Z,11.70
2022-10-02T22:02:28.320Z,11.70
2022-10-02T22:05:37.240Z,11.70
2022-10-02T22:08:22.291Z,11.80
2022-10-02T22:11:12.406Z,11.80
2022-10-02T22:13:45.566Z,11.90
2022-10-02T22:16:42.832Z,11.88
2022-10-02T22:19:37.851Z,11.90
2022-10-02T22:22:25.997Z,11.90
2022-10-02T22:25:19.692Z,12.00
2022-10-02T22:28:24.302Z,12.00
2022-10-02T22:31:42.050Z,12.00
2022-10-02T22:34:34.967Z,12.10
2022-10-02T22:37:27.118Z,12.10
2022-10-02T22:40:11.254Z,12.10
2022-10-02T22:42:52.009Z,12.10
2022-10-02T22:45:32.969Z,12.20
2022-10-02T22:48:11.234Z,12.20
2022-10-02T22:50:58.413Z,12.20
2022-10-02T22:53:35.411Z,12.30
2022-10-02T22:56:40.563Z,12.30
2022-10-02T22:59:19.639Z,12.30
2022-10-02T23:01:59.290Z,12.40
2022-10-02T23:04:39.609Z,12.28
2022-10-02T23:07:20.409Z,12.38
2022-10-02T23:09:59.268Z,12.40
2022-10-02T23:12:39.751Z,12.40
2022-10-02T23:18:23.246Z,12.40
2022-10-02T23:21:46.264Z,12.32
2022-10-02T23:24:25.104Z,12.30
2022-10-02T23:27:10.287Z,12.30
2022-10-02T23:29:48.931Z,12.20
2022-10-02T23:32:29.599Z,12.20
2022-10-02T23:35:08.312Z,12.14
2022-10-02T23:37:52.212Z,12.10
2022-10-02T23:40:44.042Z,12.10
2022-10-02T23:43:21.360Z,12.00
2022-10-02T23:46:02.507Z,12.00
2022-10-02T23:48:35.200Z,11.90
2022-10-02T23:51:23.317Z,11.90
2022-10-02T23:54:15.720Z,11.88
2022-10-02T23:57:10.106Z,11.80
